ADDS METAR Data INFO
IDs: Format: Raw Decoded Include TAF

Data at: 1600 UTC 21 Sep 2017

KLAR 211553Z AUTO 23025G32KT 10SM CLR 20/M07 A2987 RMK AO2 PK WND 22032/1553 SLP015 T02001067